LRBS/BBU METAR and TAF weather

Enter ICAO airport designator
Station Type Date Time Source
LRBS METAR 2020/07/10 23:00 UTC NOAA

LRBS 102300Z 10006KT CAVOK 20/12 Q1019 NOSIG


Station Type Date Time Source
LRBS Decoded METAR 2020/07/10 23:00 UTC NOAA

Bucuresti / Imh, Romania (LRBS) 44-30N 026-08E 91M
Jul 10, 2020 - 07:00 PM EDT / 2020.07.10 2300 UTC
Wind: from the E (100 degrees) at 7 MPH (6 KT):0
Visibility: greater than 7 mile(s):0
Temperature: 68 F (20 C)
Dew Point: 53 F (12 C)
Relative Humidity: 59%
Pressure (altimeter): 30.09 in. Hg (1019 hPa)
ob: LRBS 102300Z 10006KT CAVOK 20/12 Q1019 NOSIG
cycle: 23

Station Type Date Time Source
LRBS TAF 2020/07/10 18:36 UTC NOAA

TAF LRBS 101700Z 1018/1118 08006KT CAVOK
TEMPO 1109/1115 09016KT

Example: see airport list